Terminal Aerodrome Forecast
Issued by NWS North Platte, NE

Home | Current Version | Previous Version | Text Only | Print | Product List | Glossary On
Versions: 1 2 3 4 5 6 7 8 9 10 11 12 13 14 15 16 17 18 19 20 21
000
FTUS43 KLBF 282300
TAFLBF
TAF
KLBF 282320Z 2900/2924 12005KT P6SM OVC080
     FM290900 06007KT P6SM OVC050
     FM291300 03015KT 3SM -SN BR SCT010 OVC015=

USA.gov is the U.S. government's official web portal to all federal, state and local government web resources and services.